Brighton, CO (80601)

12:19 PM MDT on March 24, 2017 (GMT -0600)
150th and Ehler Parkway | | Change Station

Elev 5128 ft 39.97 °N, 104.87 °W | Updated 1 minute ago

Overcast
Overcast
49.7 °F
Feels Like 43 °F
N
20.0
Wind Variable Wind from NNE
Gusts 26.0 mph

Today
High -- | Low -- °F
--% Chance of Precip.
Yesterday
High -- | Low -- °F
Precip. -- in
Pressure 30.10 in
Visibility 10.0 miles
Clouds Scattered Clouds 4500 ft
Mostly Cloudy 7500 ft
Mostly Cloudy 9500 ft
Windchill 43 °F
Dew Point 34 °F
Humidity 54%
Rainfall 0.37 in
Snow Depth Not available.
6:55 AM 7:15 PM
Waning Crescent, 14% visible
METAR KEIK 241634Z AUTO 36016G23KT 10SM SCT045 BKN075 BKN095 10/00 A3010 RMK AO2 T00991004
Pressure 30.10 in
Visibility 10.0 miles
Clouds Scattered Clouds 4500 ft
Mostly Cloudy 7500 ft
Mostly Cloudy 9500 ft
Windchill 43 °F
Dew Point 34 °F
Humidity 54%
Rainfall 0.37 in
Snow Depth Not available.
6:55 AM 7:15 PM
Waning Crescent, 14% visible
METAR KEIK 241634Z AUTO 36016G23KT 10SM SCT045 BKN075 BKN095 10/00 A3010 RMK AO2 T00991004

Get Severe Weather Alerts

Thanks for signing up!

Be on the lookout for a verification email in your inbox.

You'll start receiving the daily forecast at 8 AM.

×

10-Day Weather Forecast

Almanac

Astronomy

Mar. 24, 2017 Rise Set
Actual Time
Civil Twilight
Nautical Twilight
Astronomical Twilight
Moon
Length of Visible Light
Length of Day
Tomorrow will be .
, % of the Moon is Illuminated

Today's Extremes

State Highs State Lows

Community

WunderPhotos

Upload Photos

1,962,540 photos uploaded!

WunderBlog® & News

Nearby

Air Quality

  Air Quality AQ Index Pollutant
Not available.

Snow Depth

Station Depth Elevation

Earthquake Activity

City Distance Mag. Time & Date
Minimum magnitude displayed is 2.5.

Earthquake Activity

City Distance Mag. Time & Date
Minimum magnitude displayed is 2.5.

Coastal Water Temperatures

Place Temperature

Stations

Nearby Weather Stations

Station Location Temp. Windchill Dew Point Humidity Wind Precip. Elev Updated Type
                   

Watches & Warnings

There are currently no watches in effect.